Laurel Park, North Carolina
Current Conditions -  °F | °C
As of 6:54 PM on Friday 24 Oct 2014 (Local Time) from KAVL Reporting Station
Clear Clear  
Wind Chill: 60°   Ceiling: Unl
Heat Index: 60°   Visibility: 10mi
Dew Point: 32°   Wind: 6mph
Humidity: 35%   Direction: 360°N
Pressure: 30.03"   Gusts: NA
Location:  35.2687°N, 82.5413°W
Report Text: KAVL 242254Z 36005KT 10SM CLR 16/00 A3003 RMK AO2 SLP160 T01560000
Loading
Personal Weather Stations






























Interactive Weather Map
Tropical Storm Tracking
New forecast layout! Learn more

10-Day Weather Forecast

Advertisements
Track Severe Weather on mobile